THY6YW LTFM-LGAV
Flight info
| Callsign | THY6YW |
|---|---|
| Flight time | N/A |
| Altitude | 36000 |
| Route | IVGUS1E/36 IVGUS UY226 BIG UN604 OGSIL |
| Aircraft | A320/M-SDE3FGHIRWY/LB1 |
Departure
| Time | 2026-05-05 18:25 |
|---|---|
| Airport | İstanbul Airport (LTFM) |
Arrival
| Time | N/A |
|---|---|
| Airport | Athens Eleftherios Venizelos International Airport (LGAV) |
| Time | Latitude | Longitude | Altitude | Speed | Heading |
|---|---|---|---|---|---|
| 2026-05-05 17:38 | 41.26536 | 28.74740 | 334 ft | 0 kts | 90° |
| 2026-05-05 18:11 | 41.26537 | 28.74727 | 334 ft | 2 kts | 90° |
| 2026-05-05 18:11 | 41.26537 | 28.74707 | 334 ft | 2 kts | 90° |
| 2026-05-05 18:12 | 41.26537 | 28.74688 | 334 ft | 2 kts | 90° |
| 2026-05-05 18:12 | 41.26537 | 28.74668 | 334 ft | 2 kts | 90° |
| 2026-05-05 18:12 | 41.26537 | 28.74654 | 334 ft | 1 kts | 90° |
| 2026-05-05 18:12 | 41.26534 | 28.74636 | 334 ft | 2 kts | 53° |
| 2026-05-05 18:13 | 41.26522 | 28.74623 | 334 ft | 2 kts | 20° |
| 2026-05-05 18:13 | 41.26513 | 28.74620 | 334 ft | 1 kts | 359° |
| 2026-05-05 18:13 | 41.26506 | 28.74621 | 334 ft | 0 kts | 358° |
| 2026-05-05 18:16 | 41.26522 | 28.74619 | 334 ft | 6 kts | 355° |
| 2026-05-05 18:17 | 41.26604 | 28.74612 | 334 ft | 16 kts | 359° |
| 2026-05-05 18:17 | 41.26732 | 28.74610 | 334 ft | 18 kts | 359° |
| 2026-05-05 18:17 | 41.26861 | 28.74608 | 334 ft | 17 kts | 359° |
| 2026-05-05 18:17 | 41.26939 | 28.74614 | 334 ft | 10 kts | 28° |
| 2026-05-05 18:18 | 41.26962 | 28.74707 | 334 ft | 11 kts | 90° |
| 2026-05-05 18:18 | 41.26962 | 28.74825 | 334 ft | 14 kts | 89° |
| 2026-05-05 18:18 | 41.26965 | 28.74981 | 334 ft | 19 kts | 89° |
| 2026-05-05 18:18 | 41.26967 | 28.75155 | 334 ft | 17 kts | 89° |
| 2026-05-05 18:19 | 41.26968 | 28.75303 | 334 ft | 14 kts | 92° |
| 2026-05-05 18:19 | 41.26897 | 28.75372 | 334 ft | 15 kts | 179° |
| 2026-05-05 18:19 | 41.26790 | 28.75374 | 334 ft | 15 kts | 179° |
| 2026-05-05 18:19 | 41.26680 | 28.75376 | 334 ft | 16 kts | 180° |
| 2026-05-05 18:20 | 41.26564 | 28.75377 | 334 ft | 16 kts | 179° |
| 2026-05-05 18:20 | 41.26460 | 28.75380 | 334 ft | 12 kts | 177° |
| 2026-05-05 18:20 | 41.26408 | 28.75454 | 334 ft | 12 kts | 92° |
| 2026-05-05 18:20 | 41.26409 | 28.75519 | 334 ft | 3 kts | 89° |
| 2026-05-05 18:21 | 41.26409 | 28.75526 | 334 ft | 0 kts | 89° |
| 2026-05-05 18:22 | 41.26409 | 28.75537 | 334 ft | 3 kts | 89° |
| 2026-05-05 18:22 | 41.26409 | 28.75602 | 334 ft | 10 kts | 89° |
| 2026-05-05 18:22 | 41.26437 | 28.75665 | 334 ft | 8 kts | 8° |
| 2026-05-05 18:22 | 41.26453 | 28.75666 | 334 ft | 0 kts | 359° |
| 2026-05-05 18:24 | 41.26675 | 28.75664 | 334 ft | 66 kts | 360° |
| 2026-05-05 18:24 | 41.27348 | 28.75647 | 334 ft | 126 kts | 359° |
| 2026-05-05 18:25 | 41.28404 | 28.75629 | 410 ft | 167 kts | 0° |
| 2026-05-05 18:25 | 41.29179 | 28.75616 | 770 ft | 168 kts | 359° |
| 2026-05-05 18:25 | 41.30592 | 28.76117 | 1716 ft | 161 kts | 36° |
| 2026-05-05 18:25 | 41.31460 | 28.77074 | 2310 ft | 168 kts | 35° |
| 2026-05-05 18:26 | 41.32473 | 28.77978 | 2724 ft | 185 kts | 31° |
| 2026-05-05 18:26 | 41.33633 | 28.78921 | 3120 ft | 207 kts | 29° |
| 2026-05-05 18:26 | 41.34914 | 28.79920 | 3622 ft | 225 kts | 29° |
| 2026-05-05 18:26 | 41.36335 | 28.81026 | 4155 ft | 244 kts | 30° |
| 2026-05-05 18:27 | 41.37646 | 28.82456 | 4915 ft | 255 kts | 51° |
| 2026-05-05 18:27 | 41.38350 | 28.84614 | 5803 ft | 264 kts | 77° |
| 2026-05-05 18:27 | 41.38445 | 28.87072 | 6672 ft | 270 kts | 85° |
| 2026-05-05 18:27 | 41.38444 | 28.89569 | 7465 ft | 276 kts | 89° |
| 2026-05-05 18:28 | 41.36514 | 28.94033 | 9012 ft | 301 kts | 145° |
| 2026-05-05 18:28 | 41.34557 | 28.94953 | 9746 ft | 309 kts | 175° |
| 2026-05-05 18:28 | 41.32388 | 28.94893 | 10445 ft | 314 kts | 182° |
| 2026-05-05 18:29 | 41.30150 | 28.94825 | 10793 ft | 331 kts | 180° |
| 2026-05-05 18:29 | 41.27806 | 28.94833 | 11082 ft | 348 kts | 180° |
| 2026-05-05 18:29 | 41.25344 | 28.94460 | 11444 ft | 362 kts | 194° |
| 2026-05-05 18:29 | 41.22983 | 28.93300 | 12034 ft | 366 kts | 208° |
| 2026-05-05 18:30 | 41.20755 | 28.91723 | 12684 ft | 368 kts | 211° |
| 2026-05-05 18:30 | 41.18491 | 28.90030 | 13286 ft | 373 kts | 211° |
| 2026-05-05 18:30 | 41.16233 | 28.88346 | 13886 ft | 376 kts | 211° |
| 2026-05-05 18:30 | 41.13952 | 28.86674 | 14494 ft | 379 kts | 210° |
| 2026-05-05 18:31 | 41.11640 | 28.84999 | 15123 ft | 381 kts | 210° |
| 2026-05-05 18:31 | 41.09305 | 28.83312 | 15728 ft | 383 kts | 211° |
| 2026-05-05 18:31 | 41.07036 | 28.81497 | 16284 ft | 385 kts | 215° |
| 2026-05-05 18:31 | 41.04848 | 28.79455 | 16827 ft | 387 kts | 219° |
| 2026-05-05 18:32 | 41.02702 | 28.77303 | 17366 ft | 389 kts | 219° |
| 2026-05-05 18:32 | 41.00539 | 28.75116 | 17904 ft | 392 kts | 219° |
| 2026-05-05 18:32 | 40.98366 | 28.72926 | 18447 ft | 394 kts | 219° |
| 2026-05-05 18:32 | 40.96210 | 28.70762 | 19088 ft | 393 kts | 219° |
| 2026-05-05 18:33 | 40.94044 | 28.68596 | 19629 ft | 394 kts | 219° |
| 2026-05-05 18:33 | 40.92026 | 28.66118 | 20088 ft | 395 kts | 234° |
| 2026-05-05 18:33 | 40.90681 | 28.63028 | 20563 ft | 392 kts | 252° |
| 2026-05-05 18:33 | 40.90004 | 28.59548 | 21069 ft | 390 kts | 262° |
| 2026-05-05 18:34 | 40.89526 | 28.56051 | 21500 ft | 393 kts | 263° |
| 2026-05-05 18:34 | 40.89047 | 28.52461 | 21928 ft | 396 kts | 263° |
| 2026-05-05 18:34 | 40.88555 | 28.48912 | 22352 ft | 400 kts | 263° |
| 2026-05-05 18:34 | 40.88034 | 28.45312 | 22749 ft | 403 kts | 262° |
| 2026-05-05 18:35 | 40.87497 | 28.41666 | 23178 ft | 405 kts | 262° |
| 2026-05-05 18:35 | 40.86953 | 28.38004 | 23609 ft | 407 kts | 262° |
| 2026-05-05 18:35 | 40.86268 | 28.34359 | 23975 ft | 413 kts | 251° |
| 2026-05-05 18:35 | 40.84875 | 28.31040 | 24339 ft | 420 kts | 236° |
| 2026-05-05 18:36 | 40.82982 | 28.28093 | 24729 ft | 425 kts | 226° |
| 2026-05-05 18:36 | 40.80808 | 28.25474 | 25101 ft | 428 kts | 223° |
| 2026-05-05 18:36 | 40.78571 | 28.22908 | 25456 ft | 430 kts | 223° |
| 2026-05-05 18:36 | 40.76320 | 28.20253 | 25815 ft | 432 kts | 224° |
| 2026-05-05 18:37 | 40.74091 | 28.17567 | 26181 ft | 434 kts | 224° |
| 2026-05-05 18:37 | 40.71889 | 28.14883 | 26530 ft | 436 kts | 225° |
| 2026-05-05 18:37 | 40.69659 | 28.12158 | 26861 ft | 439 kts | 225° |
| 2026-05-05 18:37 | 40.67437 | 28.09443 | 27190 ft | 441 kts | 225° |
| 2026-05-05 18:38 | 40.65180 | 28.06690 | 27528 ft | 443 kts | 225° |
| 2026-05-05 18:38 | 40.62907 | 28.03921 | 27855 ft | 444 kts | 225° |
| 2026-05-05 18:38 | 40.60641 | 28.01167 | 28150 ft | 447 kts | 225° |
| 2026-05-05 18:38 | 40.58368 | 27.98407 | 28442 ft | 449 kts | 225° |
| 2026-05-05 18:39 | 40.56091 | 27.95647 | 28718 ft | 452 kts | 225° |
| 2026-05-05 18:39 | 40.53756 | 27.92814 | 28991 ft | 454 kts | 225° |
| 2026-05-05 18:39 | 40.51445 | 27.90014 | 29279 ft | 456 kts | 225° |
| 2026-05-05 18:39 | 40.49099 | 27.87172 | 29558 ft | 458 kts | 225° |
| 2026-05-05 18:40 | 40.46772 | 27.84359 | 29827 ft | 460 kts | 225° |
| 2026-05-05 18:40 | 40.44408 | 27.81506 | 30099 ft | 462 kts | 225° |
| 2026-05-05 18:40 | 40.42049 | 27.78663 | 30342 ft | 464 kts | 226° |
| 2026-05-05 18:40 | 40.39675 | 27.75802 | 30584 ft | 466 kts | 225° |
| 2026-05-05 18:41 | 40.37314 | 27.72961 | 30856 ft | 466 kts | 226° |
| 2026-05-05 18:41 | 40.34930 | 27.70095 | 31208 ft | 465 kts | 226° |
| 2026-05-05 18:41 | 40.32549 | 27.67236 | 31573 ft | 463 kts | 226° |
| 2026-05-05 18:41 | 40.30172 | 27.64383 | 31929 ft | 461 kts | 226° |
| 2026-05-05 18:42 | 40.27845 | 27.61590 | 32245 ft | 460 kts | 227° |
| 2026-05-05 18:42 | 40.25478 | 27.58750 | 32538 ft | 460 kts | 227° |
| 2026-05-05 18:42 | 40.23117 | 27.55922 | 32832 ft | 459 kts | 227° |
| 2026-05-05 18:42 | 40.20771 | 27.53116 | 33158 ft | 458 kts | 227° |
| 2026-05-05 18:43 | 40.18452 | 27.50346 | 33458 ft | 457 kts | 227° |
| 2026-05-05 18:43 | 40.16126 | 27.47568 | 33743 ft | 456 kts | 227° |
| 2026-05-05 18:43 | 40.13787 | 27.44779 | 34022 ft | 455 kts | 227° |
| 2026-05-05 18:43 | 40.11450 | 27.41996 | 34289 ft | 455 kts | 228° |
| 2026-05-05 18:44 | 40.09099 | 27.39197 | 34503 ft | 455 kts | 228° |
| 2026-05-05 18:44 | 40.06786 | 27.36447 | 34695 ft | 455 kts | 228° |